createdAt,value
2018-06-10T00:01:45.575Z,17.17
2018-06-10T00:04:14.367Z,21.62
2018-06-10T00:06:43.100Z,15.13
2018-06-10T00:09:11.720Z,17.50
2018-06-10T00:11:40.037Z,22.70
2018-06-10T00:14:08.568Z,20.93
2018-06-10T00:16:36.869Z,16.90
2018-06-10T00:19:05.173Z,15.00
2018-06-10T00:21:34.045Z,15.90
2018-06-10T00:24:02.410Z,13.20
2018-06-10T00:26:30.874Z,16.20
2018-06-10T00:29:33.807Z,16.15
2018-06-10T00:32:02.116Z,16.00
2018-06-10T00:34:30.413Z,16.33
2018-06-10T00:36:58.848Z,14.23
2018-06-10T00:39:27.408Z,12.15
2018-06-10T00:41:56.024Z,10.33
2018-06-10T00:44:24.311Z,13.37
2018-06-10T00:46:52.892Z,9.30
2018-06-10T00:49:21.461Z,15.75
2018-06-10T00:51:50.086Z,10.27
2018-06-10T00:54:18.404Z,15.97
2018-06-10T00:56:51.618Z,10.07
2018-06-10T00:59:19.940Z,15.20
2018-06-10T01:01:48.412Z,9.97
2018-06-10T01:04:16.704Z,11.40
2018-06-10T01:06:45.014Z,14.13
2018-06-10T01:09:13.300Z,10.80
2018-06-10T01:11:41.922Z,10.70
2018-06-10T01:14:10.331Z,10.77
2018-06-10T01:16:38.623Z,14.00
2018-06-10T01:19:06.919Z,9.80
2018-06-10T01:21:35.271Z,14.53
2018-06-10T01:24:03.729Z,19.80
2018-06-10T01:26:37.488Z,11.57
2018-06-10T01:29:05.793Z,13.13
2018-06-10T01:31:34.096Z,17.17
2018-06-10T01:34:02.633Z,15.83
2018-06-10T01:36:31.225Z,16.02
2018-06-10T01:38:59.517Z,14.83
2018-06-10T01:41:28.091Z,13.40
2018-06-10T01:43:56.393Z,13.60
2018-06-10T01:46:24.687Z,15.97
2018-06-10T01:48:52.991Z,13.37
2018-06-10T01:51:21.561Z,13.67
2018-06-10T01:53:49.903Z,14.63
2018-06-10T01:56:19.021Z,15.70
2018-06-10T01:58:47.317Z,16.53
2018-06-10T02:01:15.603Z,14.20
2018-06-10T02:03:44.209Z,21.70
2018-06-10T02:06:12.508Z,11.43
2018-06-10T02:08:40.808Z,17.43
2018-06-10T02:11:09.104Z,19.00
2018-06-10T02:13:37.689Z,11.75
2018-06-10T02:16:06.234Z,10.95
2018-06-10T02:18:34.800Z,9.30
2018-06-10T02:21:03.204Z,12.93
2018-06-10T02:23:31.502Z,11.10
2018-06-10T02:25:59.796Z,11.47
2018-06-10T02:28:28.425Z,9.00
2018-06-10T02:30:57.126Z,7.23
2018-06-10T02:33:25.736Z,7.77
2018-06-10T02:35:54.447Z,10.13
2018-06-10T02:38:22.805Z,10.37
2018-06-10T02:40:51.160Z,10.73
2018-06-10T02:43:19.520Z,9.13
2018-06-10T02:45:47.909Z,9.10
2018-06-10T02:48:16.240Z,8.63
2018-06-10T02:50:44.595Z,11.80
2018-06-10T02:53:13.142Z,11.97
2018-06-10T02:55:41.491Z,11.10
2018-06-10T02:58:10.124Z,11.78
2018-06-10T03:00:39.165Z,11.85
2018-06-10T03:03:08.107Z,10.33
2018-06-10T03:05:36.835Z,11.33
2018-06-10T03:08:05.572Z,11.93
2018-06-10T03:10:34.069Z,13.80
2018-06-10T03:13:02.720Z,15.70
2018-06-10T03:15:31.211Z,13.03
2018-06-10T03:17:59.819Z,13.53
2018-06-10T03:20:28.427Z,11.70
2018-06-10T03:22:57.049Z,11.63
2018-06-10T03:25:25.685Z,13.85
2018-06-10T03:27:54.021Z,18.83
2018-06-10T03:30:22.633Z,10.87
2018-06-10T03:32:51.528Z,15.70
2018-06-10T03:35:19.899Z,15.57
2018-06-10T03:37:48.415Z,12.73
2018-06-10T03:40:16.974Z,14.53
2018-06-10T03:42:45.545Z,12.03
2018-06-10T03:45:13.840Z,14.60
2018-06-10T03:47:42.132Z,15.33
2018-06-10T03:50:10.764Z,13.37
2018-06-10T03:52:39.330Z,17.80
2018-06-10T03:55:07.936Z,16.47
2018-06-10T03:57:36.451Z,13.90
2018-06-10T04:00:04.844Z,16.60
2018-06-10T04:02:33.422Z,14.38
2018-06-10T04:05:01.996Z,11.00
2018-06-10T04:07:30.283Z,17.67
2018-06-10T04:09:58.783Z,17.40
2018-06-10T04:12:27.133Z,19.30
2018-06-10T04:14:55.708Z,14.43
2018-06-10T04:17:24.283Z,14.30
2018-06-10T04:19:52.703Z,17.57
2018-06-10T04:22:21.305Z,16.07
2018-06-10T04:24:49.605Z,17.10
2018-06-10T04:27:17.917Z,18.00
2018-06-10T04:29:46.890Z,16.70
2018-06-10T04:32:15.221Z,15.07
2018-06-10T04:34:43.515Z,16.00
2018-06-10T04:37:11.881Z,20.60
2018-06-10T04:39:40.172Z,17.67
2018-06-10T04:42:08.795Z,20.70
2018-06-10T04:44:37.080Z,18.93
2018-06-10T04:47:05.389Z,18.80
2018-06-10T04:49:34.045Z,19.30
2018-06-10T04:52:02.637Z,20.40
2018-06-10T04:54:30.936Z,20.73
2018-06-10T04:56:59.556Z,17.85
2018-06-10T04:59:27.984Z,24.80
2018-06-10T05:01:56.380Z,20.43
2018-06-10T05:04:24.719Z,22.60
2018-06-10T05:06:53.699Z,16.27
2018-06-10T05:09:22.051Z,17.10
2018-06-10T05:11:50.761Z,19.80
2018-06-10T05:14:19.399Z,19.42
2018-06-10T05:16:47.979Z,15.13
2018-06-10T05:19:16.615Z,16.17
2018-06-10T05:21:45.317Z,15.60
2018-06-10T05:24:13.671Z,17.27
2018-06-10T05:26:42.141Z,18.60
2018-06-10T05:29:10.828Z,16.57
2018-06-10T05:31:39.191Z,15.37
2018-06-10T05:34:07.504Z,14.67
2018-06-10T05:36:35.797Z,16.60
2018-06-10T05:39:07.597Z,17.13
2018-06-10T05:41:36.317Z,18.57
2018-06-10T05:44:04.720Z,13.60
2018-06-10T05:46:33.325Z,13.13
2018-06-10T05:49:01.954Z,11.85
2018-06-10T05:51:30.329Z,12.57
2018-06-10T05:53:58.638Z,11.77
2018-06-10T05:56:27.242Z,11.33
2018-06-10T05:58:55.677Z,12.40
2018-06-10T06:01:24.257Z,12.73
2018-06-10T06:03:52.545Z,10.70
2018-06-10T06:06:21.102Z,10.60
2018-06-10T06:08:50.683Z,15.28
2018-06-10T06:11:19.231Z,12.13
2018-06-10T06:13:47.788Z,13.72
2018-06-10T06:16:16.364Z,13.08
2018-06-10T06:18:44.665Z,10.93
2018-06-10T06:21:13.248Z,12.20
2018-06-10T06:23:41.558Z,10.10
2018-06-10T06:26:09.840Z,11.13
2018-06-10T06:28:38.328Z,11.00
2018-06-10T06:31:06.665Z,11.97
2018-06-10T06:33:35.315Z,12.60
2018-06-10T06:36:03.688Z,13.37
2018-06-10T06:38:32.219Z,11.00
2018-06-10T06:41:00.560Z,14.93
2018-06-10T06:43:28.913Z,10.97
2018-06-10T06:45:57.267Z,13.40
2018-06-10T06:48:25.901Z,11.65
2018-06-10T06:50:54.529Z,12.55
2018-06-10T06:53:23.171Z,9.73
2018-06-10T06:55:55.657Z,10.13
2018-06-10T06:58:24.569Z,11.30
2018-06-10T07:00:53.383Z,10.65
2018-06-10T07:03:21.823Z,12.57
2018-06-10T07:05:50.439Z,9.58
2018-06-10T07:08:19.213Z,9.48
2018-06-10T07:10:47.369Z,13.27
2018-06-10T07:13:15.777Z,9.70
2018-06-10T07:15:44.753Z,13.20
2018-06-10T07:18:13.262Z,11.43
2018-06-10T07:20:41.625Z,11.40
2018-06-10T07:23:10.337Z,9.50
2018-06-10T07:25:38.805Z,11.43
2018-06-10T07:28:07.153Z,8.67
2018-06-10T07:30:35.689Z,10.63
2018-06-10T07:33:04.685Z,9.95
2018-06-10T07:35:33.172Z,13.70
2018-06-10T07:38:01.669Z,8.03
2018-06-10T07:40:30.365Z,10.80
2018-06-10T07:42:59.101Z,10.90
2018-06-10T07:45:27.464Z,8.70
2018-06-10T07:47:55.818Z,8.77
2018-06-10T07:50:24.306Z,8.33
2018-06-10T07:52:52.652Z,9.30
2018-06-10T07:55:21.059Z,8.50
2018-06-10T07:57:49.843Z,11.10
2018-06-10T08:00:18.468Z,10.90
2018-06-10T08:02:47.080Z,11.65
2018-06-10T08:05:15.683Z,12.63
2018-06-10T08:07:44.072Z,14.93
2018-06-10T08:10:12.712Z,11.25
2018-06-10T08:12:41.055Z,9.90
2018-06-10T08:15:09.897Z,10.10
2018-06-10T08:17:38.629Z,14.53
2018-06-10T08:20:07.345Z,9.53
2018-06-10T08:22:35.748Z,14.20
2018-06-10T08:25:04.239Z,20.50
2018-06-10T08:27:32.917Z,14.63
2018-06-10T08:30:01.763Z,12.87
2018-06-10T08:32:30.395Z,9.60
2018-06-10T08:34:58.777Z,11.90
2018-06-10T08:37:26.895Z,10.93
2018-06-10T08:39:55.640Z,11.73
2018-06-10T08:42:23.953Z,15.63
2018-06-10T08:44:52.268Z,12.77
2018-06-10T08:47:20.696Z,10.30
2018-06-10T08:49:49.030Z,10.73
2018-06-10T08:52:17.636Z,12.23
2018-06-10T08:54:45.967Z,11.13
2018-06-10T08:57:14.400Z,10.28
2018-06-10T08:59:42.752Z,11.97
2018-06-10T09:02:11.064Z,10.00
2018-06-10T09:04:39.328Z,16.60
2018-06-10T09:07:07.644Z,11.97
2018-06-10T09:09:36.072Z,11.60
2018-06-10T09:12:04.372Z,11.67
2018-06-10T09:14:32.976Z,11.37
2018-06-10T09:17:01.504Z,10.90
2018-06-10T09:19:30.055Z,13.20
2018-06-10T09:21:58.375Z,13.07
2018-06-10T09:24:26.945Z,11.40
2018-06-10T09:26:55.593Z,13.72
2018-06-10T09:29:23.909Z,14.20
2018-06-10T09:31:52.204Z,12.67
2018-06-10T09:34:20.567Z,10.67
2018-06-10T09:36:48.925Z,10.73
2018-06-10T09:39:17.667Z,10.40
2018-06-10T09:41:46.021Z,10.53
2018-06-10T09:44:14.777Z,10.63
2018-06-10T09:46:43.123Z,8.87
2018-06-10T09:49:12.070Z,9.60
2018-06-10T09:51:40.473Z,10.80
2018-06-10T09:54:09.145Z,10.93
2018-06-10T09:56:37.892Z,10.37
2018-06-10T09:59:06.488Z,10.03
2018-06-10T10:01:35.252Z,9.27
2018-06-10T10:04:04.535Z,8.73
2018-06-10T10:06:33.958Z,10.60
2018-06-10T10:09:03.373Z,9.23
2018-06-10T10:11:32.021Z,9.03
2018-06-10T10:14:00.712Z,11.10
2018-06-10T10:16:29.098Z,9.67
2018-06-10T10:18:57.460Z,9.13
2018-06-10T10:21:26.100Z,11.57
2018-06-10T10:23:54.468Z,9.27
2018-06-10T10:26:22.820Z,9.33
2018-06-10T10:28:51.832Z,9.83
2018-06-10T10:31:21.247Z,10.30
2018-06-10T10:33:49.958Z,8.83
2018-06-10T10:36:19.711Z,10.60
2018-06-10T10:38:48.756Z,8.50
2018-06-10T10:41:17.442Z,8.50
2018-06-10T10:43:46.120Z,8.80
2018-06-10T10:46:14.504Z,8.93
2018-06-10T10:48:42.908Z,9.50
2018-06-10T10:51:11.437Z,9.90
2018-06-10T10:53:40.076Z,9.00
2018-06-10T10:56:08.554Z,10.50
2018-06-10T10:58:37.063Z,9.17
2018-06-10T11:01:06.202Z,10.93
2018-06-10T11:03:34.748Z,8.43
2018-06-10T11:06:03.161Z,8.90
2018-06-10T11:08:32.418Z,9.63
2018-06-10T11:11:01.809Z,8.33
2018-06-10T11:13:30.238Z,8.27
2018-06-10T11:15:58.741Z,9.03
2018-06-10T11:18:27.576Z,9.90
2018-06-10T11:20:56.215Z,8.07
2018-06-10T11:23:24.849Z,7.45
2018-06-10T11:25:53.265Z,7.10
2018-06-10T11:28:21.658Z,7.30
2018-06-10T11:30:50.360Z,8.20
2018-06-10T11:33:19.190Z,7.25
2018-06-10T11:35:47.972Z,8.58
2018-06-10T11:38:16.868Z,7.72
2018-06-10T11:40:45.236Z,7.57
2018-06-10T11:43:13.858Z,7.30
2018-06-10T11:45:42.214Z,6.43
2018-06-10T11:48:10.576Z,6.90
2018-06-10T11:50:39.481Z,7.50
2018-06-10T11:53:08.207Z,8.93
2018-06-10T11:55:36.866Z,8.10
2018-06-10T11:58:05.223Z,8.30
2018-06-10T12:00:33.897Z,7.60
2018-06-10T12:03:02.244Z,9.70
2018-06-10T12:05:30.605Z,12.33
2018-06-10T12:07:59.620Z,10.50
2018-06-10T12:10:28.279Z,11.05
2018-06-10T12:12:56.866Z,9.47
2018-06-10T12:15:25.256Z,8.73
2018-06-10T12:17:53.880Z,8.27
2018-06-10T12:20:22.772Z,10.70
2018-06-10T12:22:52.292Z,11.70
2018-06-10T12:25:20.832Z,12.43
2018-06-10T12:27:49.236Z,9.83
2018-06-10T12:30:19.166Z,10.10
2018-06-10T12:32:47.665Z,11.40
2018-06-10T12:35:16.278Z,11.67
2018-06-10T12:37:44.780Z,11.40
2018-06-10T12:40:13.424Z,10.47
2018-06-10T12:42:41.868Z,17.70
2018-06-10T12:45:10.552Z,9.50
2018-06-10T12:47:39.201Z,12.27
2018-06-10T12:50:07.678Z,10.20
2018-06-10T12:52:36.028Z,11.27
2018-06-10T12:55:05.008Z,8.80
2018-06-10T12:57:33.653Z,8.45
2018-06-10T13:00:02.085Z,8.10
2018-06-10T13:02:30.665Z,8.70
2018-06-10T13:04:59.693Z,9.73
2018-06-10T13:07:32.198Z,8.57
2018-06-10T13:10:01.090Z,10.95
2018-06-10T13:12:29.571Z,10.70
2018-06-10T13:14:58.001Z,6.97
2018-06-10T13:17:26.379Z,7.10
2018-06-10T13:19:55.041Z,8.13
2018-06-10T13:22:23.451Z,13.15
2018-06-10T13:24:52.083Z,8.05
2018-06-10T13:27:20.674Z,9.33
2018-06-10T13:29:49.053Z,11.47
2018-06-10T13:32:17.414Z,10.63
2018-06-10T13:34:46.101Z,10.28
2018-06-10T13:37:14.729Z,10.60
2018-06-10T13:39:43.132Z,12.10
2018-06-10T13:42:11.884Z,10.58
2018-06-10T13:44:40.501Z,9.53
2018-06-10T13:47:09.032Z,17.03
2018-06-10T13:49:37.418Z,10.37
2018-06-10T13:52:05.826Z,9.10
2018-06-10T13:54:34.467Z,16.30
2018-06-10T13:57:03.432Z,7.57
2018-06-10T13:59:32.133Z,7.97
2018-06-10T14:02:00.827Z,7.23
2018-06-10T14:04:29.582Z,7.03
2018-06-10T14:06:57.940Z,9.03
2018-06-10T14:09:26.536Z,8.27
2018-06-10T14:11:55.012Z,7.60
2018-06-10T14:14:23.912Z,7.30
2018-06-10T14:16:52.261Z,8.27
2018-06-10T14:19:20.756Z,6.73
2018-06-10T14:21:49.400Z,7.03
2018-06-10T14:24:17.771Z,7.80
2018-06-10T14:26:46.384Z,6.40
2018-06-10T14:29:15.084Z,6.60
2018-06-10T14:31:43.539Z,7.00
2018-06-10T14:34:11.903Z,7.63
2018-06-10T14:36:40.747Z,7.00
2018-06-10T14:39:10.049Z,5.93
2018-06-10T14:41:38.406Z,5.60
2018-06-10T14:44:06.710Z,5.33
2018-06-10T14:46:35.341Z,3.93
2018-06-10T14:49:03.649Z,3.70
2018-06-10T14:51:32.204Z,3.10
2018-06-10T14:54:00.528Z,3.33
2018-06-10T14:56:29.177Z,3.47
2018-06-10T14:58:57.748Z,3.97
2018-06-10T15:01:26.316Z,3.45
2018-06-10T15:03:54.614Z,3.43
2018-06-10T15:06:22.926Z,2.80
2018-06-10T15:08:51.236Z,3.63
2018-06-10T15:11:19.608Z,2.33
2018-06-10T15:13:48.174Z,2.08
2018-06-10T15:16:17.764Z,2.27
2018-06-10T15:18:46.620Z,3.07
2018-06-10T15:21:15.237Z,2.83
2018-06-10T15:23:43.712Z,2.40
2018-06-10T15:26:12.844Z,2.30
2018-06-10T15:28:41.788Z,2.70
2018-06-10T15:31:10.272Z,2.63
2018-06-10T15:33:38.701Z,2.90
2018-06-10T15:36:07.856Z,2.47
2018-06-10T15:38:36.418Z,2.47
2018-06-10T15:41:04.708Z,2.27
2018-06-10T15:43:33.035Z,3.23
2018-06-10T15:46:01.334Z,2.70
2018-06-10T15:48:29.619Z,2.37
2018-06-10T15:50:57.925Z,2.83
2018-06-10T15:53:26.212Z,4.70
2018-06-10T15:55:54.777Z,3.40
2018-06-10T15:58:23.093Z,4.93
2018-06-10T16:00:51.381Z,3.00
2018-06-10T16:03:20.284Z,2.23
2018-06-10T16:05:48.837Z,3.02
2018-06-10T16:08:17.144Z,2.77
2018-06-10T16:10:45.693Z,4.03
2018-06-10T16:13:14.303Z,2.90
2018-06-10T16:15:42.644Z,2.97
2018-06-10T16:18:11.208Z,3.10
2018-06-10T16:20:39.524Z,3.73
2018-06-10T16:23:08.202Z,3.57
2018-06-10T16:25:36.818Z,3.60
2018-06-10T16:28:05.120Z,3.10
2018-06-10T16:30:33.444Z,3.30
2018-06-10T16:33:02.126Z,3.65
2018-06-10T16:35:30.604Z,3.70
2018-06-10T16:37:59.053Z,3.30
2018-06-10T16:40:27.703Z,3.53
2018-06-10T16:42:56.555Z,3.52
2018-06-10T16:45:25.059Z,4.00
2018-06-10T16:47:53.625Z,3.40
2018-06-10T16:50:22.243Z,3.47
2018-06-10T16:52:50.637Z,10.80
2018-06-10T16:55:21.835Z,3.20
2018-06-10T16:58:42.193Z,3.10
2018-06-10T17:01:10.741Z,5.33
2018-06-10T17:03:39.301Z,7.40
2018-06-10T17:06:07.857Z,4.80
2018-06-10T17:08:36.769Z,5.27
2018-06-10T17:11:05.896Z,3.22
2018-06-10T17:13:34.540Z,3.42
2018-06-10T17:16:02.694Z,4.17
2018-06-10T17:18:31.238Z,4.13
2018-06-10T17:20:59.874Z,3.70
2018-06-10T17:23:28.652Z,4.03
2018-06-10T17:25:57.081Z,3.87
2018-06-10T17:28:25.788Z,3.43
2018-06-10T17:30:54.552Z,3.40
2018-06-10T17:33:22.931Z,5.20
2018-06-10T17:35:51.305Z,6.63
2018-06-10T17:38:19.667Z,3.60
2018-06-10T17:40:48.613Z,5.33
2018-06-10T17:43:18.270Z,4.03
2018-06-10T17:45:48.044Z,4.07
2018-06-10T17:48:16.558Z,8.80
2018-06-10T17:50:45.044Z,6.23
2018-06-10T17:53:13.814Z,4.83
2018-06-10T17:55:42.221Z,5.90
2018-06-10T17:58:11.127Z,4.37
2018-06-10T18:00:40.383Z,3.55
2018-06-10T18:03:08.943Z,3.13
2018-06-10T18:05:37.299Z,10.10
2018-06-10T18:08:05.913Z,4.70
2018-06-10T18:10:34.289Z,3.90
2018-06-10T18:13:03.235Z,4.10
2018-06-10T18:15:31.757Z,4.63
2018-06-10T18:18:00.405Z,4.90
2018-06-10T18:20:29.262Z,4.50
2018-06-10T18:22:58.107Z,6.90
2018-06-10T18:25:26.709Z,4.57
2018-06-10T18:27:55.093Z,4.43
2018-06-10T18:30:23.620Z,4.40
2018-06-10T18:32:53.344Z,3.25
2018-06-10T18:35:22.310Z,4.20
2018-06-10T18:37:51.409Z,4.00
2018-06-10T18:40:20.101Z,4.27
2018-06-10T18:42:48.960Z,4.90
2018-06-10T18:45:17.400Z,4.27
2018-06-10T18:47:45.976Z,4.43
2018-06-10T18:50:14.810Z,4.80
2018-06-10T18:52:43.572Z,5.37
2018-06-10T18:55:12.197Z,5.10
2018-06-10T18:57:40.884Z,4.70
2018-06-10T19:00:09.835Z,6.73
2018-06-10T19:02:38.472Z,4.90
2018-06-10T19:05:06.900Z,6.73
2018-06-10T19:07:35.641Z,3.77
2018-06-10T19:10:04.614Z,4.20
2018-06-10T19:12:33.004Z,4.20
2018-06-10T19:15:01.568Z,4.30
2018-06-10T19:17:30.324Z,12.50
2018-06-10T19:19:59.204Z,5.30
2018-06-10T19:22:27.571Z,5.83
2018-06-10T19:24:56.129Z,5.63
2018-06-10T19:27:25.293Z,5.08
2018-06-10T19:29:54.488Z,4.60
2018-06-10T19:32:23.096Z,8.97
2018-06-10T19:34:51.484Z,7.37
2018-06-10T19:37:19.973Z,5.93
2018-06-10T19:39:48.544Z,5.37
2018-06-10T19:42:16.864Z,6.13
2018-06-10T19:44:45.480Z,5.00
2018-06-10T19:47:14.125Z,5.30
2018-06-10T19:49:42.679Z,5.43
2018-06-10T19:52:11.178Z,11.67
2018-06-10T19:54:39.559Z,7.40
2018-06-10T19:57:08.309Z,9.07
2018-06-10T19:59:37.616Z,10.20
2018-06-10T20:02:06.811Z,7.07
2018-06-10T20:04:35.523Z,7.72
2018-06-10T20:07:04.098Z,8.45
2018-06-10T20:09:32.673Z,8.20
2018-06-10T20:12:01.250Z,9.17
2018-06-10T20:14:29.919Z,8.78
2018-06-10T20:16:58.527Z,8.10
2018-06-10T20:19:27.141Z,10.23
2018-06-10T20:21:55.443Z,8.23
2018-06-10T20:24:23.736Z,8.53
2018-06-10T20:26:52.052Z,6.20
2018-06-10T20:29:20.352Z,6.77
2018-06-10T20:31:48.668Z,7.60
2018-06-10T20:34:17.176Z,6.33
2018-06-10T20:36:45.644Z,7.77
2018-06-10T20:39:14.363Z,6.17
2018-06-10T20:41:42.963Z,8.93
2018-06-10T20:44:11.344Z,7.40
2018-06-10T20:46:39.688Z,7.20
2018-06-10T20:49:08.353Z,7.63
2018-06-10T20:51:36.688Z,8.03
2018-06-10T20:54:05.615Z,6.60
2018-06-10T20:56:33.962Z,8.00
2018-06-10T20:59:02.621Z,12.93
2018-06-10T21:01:30.971Z,7.73
2018-06-10T21:03:59.381Z,8.00
2018-06-10T21:06:27.981Z,7.60
2018-06-10T21:08:56.335Z,6.70
2018-06-10T21:11:24.921Z,7.17
2018-06-10T21:13:53.379Z,11.37
2018-06-10T21:16:21.873Z,6.73
2018-06-10T21:18:50.229Z,12.63
2018-06-10T21:21:18.864Z,6.80
2018-06-10T21:23:47.661Z,6.95
2018-06-10T21:26:16.105Z,6.73
2018-06-10T21:28:44.640Z,6.60
2018-06-10T21:31:13.167Z,6.33
2018-06-10T21:33:41.769Z,7.05
2018-06-10T21:36:10.272Z,9.17
2018-06-10T21:38:39.173Z,7.78
2018-06-10T21:41:07.796Z,7.42
2018-06-10T21:43:37.004Z,10.45
2018-06-10T21:46:06.035Z,10.20
2018-06-10T21:48:34.496Z,7.50
2018-06-10T21:51:02.828Z,8.20
2018-06-10T21:53:31.564Z,11.10
2018-06-10T21:56:00.124Z,13.23
2018-06-10T21:58:28.688Z,7.20
2018-06-10T22:00:58.604Z,7.50
2018-06-10T22:03:27.044Z,7.83
2018-06-10T22:05:55.527Z,9.23
2018-06-10T22:08:24.148Z,9.25
2018-06-10T22:10:52.623Z,8.20
2018-06-10T22:13:20.973Z,11.80
2018-06-10T22:15:49.574Z,8.98
2018-06-10T22:18:17.653Z,10.70
2018-06-10T22:20:46.007Z,7.93
2018-06-10T22:23:14.376Z,7.70
2018-06-10T22:25:43.053Z,8.93
2018-06-10T22:28:11.664Z,7.72
2018-06-10T22:30:40.347Z,9.23
2018-06-10T22:33:09.109Z,10.08
2018-06-10T22:35:37.713Z,8.88
2018-06-10T22:38:06.303Z,8.80
2018-06-10T22:40:34.577Z,9.93
2018-06-10T22:43:03.184Z,8.70
2018-06-10T22:45:31.969Z,8.03
2018-06-10T22:48:00.308Z,8.67
2018-06-10T22:50:28.626Z,12.00
2018-06-10T22:53:45.967Z,7.90
2018-06-10T22:56:14.271Z,7.97
2018-06-10T22:58:42.864Z,9.77
2018-06-10T23:01:11.764Z,7.77
2018-06-10T23:03:40.507Z,9.10
2018-06-10T23:06:08.802Z,12.33
2018-06-10T23:08:37.115Z,8.40
2018-06-10T23:11:06.037Z,9.93
2018-06-10T23:13:34.331Z,8.20
2018-06-10T23:16:02.657Z,10.23
2018-06-10T23:18:30.932Z,11.17
2018-06-10T23:20:59.229Z,9.50
2018-06-10T23:23:27.519Z,8.77
2018-06-10T23:25:55.814Z,9.73
2018-06-10T23:28:24.312Z,11.87
2018-06-10T23:30:52.600Z,11.10
2018-06-10T23:33:20.900Z,7.97
2018-06-10T23:35:49.434Z,7.60
2018-06-10T23:38:17.795Z,12.10
2018-06-10T23:40:46.436Z,10.87
2018-06-10T23:43:14.780Z,9.50
2018-06-10T23:45:43.230Z,7.83
2018-06-10T23:48:11.743Z,9.80
2018-06-10T23:50:40.359Z,11.05
2018-06-10T23:53:08.829Z,12.60
2018-06-10T23:55:37.287Z,8.93
2018-06-10T23:58:05.637Z,10.17
